createdAt,value
2023-04-30T00:02:20.777Z,101730.38
2023-04-30T00:04:47.969Z,101724.31
2023-04-30T00:07:15.034Z,101718.16
2023-04-30T00:09:42.164Z,101721.94
2023-04-30T00:12:09.206Z,101718.47
2023-04-30T00:14:36.918Z,101719.28
2023-04-30T00:17:03.962Z,101714.28
2023-04-30T00:19:31.026Z,101702.81
2023-04-30T00:21:57.982Z,101694.91
2023-04-30T00:24:24.926Z,101689.63
2023-04-30T00:26:51.853Z,101683.63
2023-04-30T00:29:18.825Z,101688.06
2023-04-30T00:31:46.005Z,101695.22
2023-04-30T00:34:13.048Z,101695.28
2023-04-30T00:36:40.980Z,101690.19
2023-04-30T00:39:08.113Z,101695.47
2023-04-30T00:41:36.566Z,101698.22
2023-04-30T00:44:03.669Z,101695.75
2023-04-30T00:46:31.320Z,101693.06
2023-04-30T00:48:58.746Z,101691.31
2023-04-30T00:51:26.995Z,101686.09
2023-04-30T00:53:54.448Z,101684.38
2023-04-30T00:56:21.592Z,101686.22
2023-04-30T00:58:51.436Z,101682.84
2023-04-30T01:01:18.713Z,101682.84
2023-04-30T01:03:46.425Z,101687.28
2023-04-30T01:06:13.580Z,101692.56
2023-04-30T01:08:40.852Z,101683.78
2023-04-30T01:11:07.717Z,101688.22
2023-04-30T01:14:03.688Z,101681.28
2023-04-30T01:16:36.633Z,101684.84
2023-04-30T01:19:29.928Z,101680.47
2023-04-30T01:22:03.852Z,101675.25
2023-04-30T01:24:39.945Z,101669.06
2023-04-30T01:27:32.296Z,101668.22
2023-04-30T01:30:02.396Z,101672.72
2023-04-30T01:32:29.463Z,101667.44
2023-04-30T01:34:56.520Z,101663.91
2023-04-30T01:37:28.995Z,101653.41
2023-04-30T01:40:14.338Z,101648.97
2023-04-30T01:43:12.851Z,101646.38
2023-04-30T01:46:08.744Z,101649.88
2023-04-30T01:48:53.929Z,101646.47
2023-04-30T01:51:28.839Z,101643.81
2023-04-30T01:54:03.498Z,101641.25
2023-04-30T01:56:54.209Z,101641.31
2023-04-30T01:59:22.145Z,101635.09
2023-04-30T02:01:49.138Z,101636.03
2023-04-30T02:04:16.374Z,101631.66
2023-04-30T02:06:43.355Z,101636.03
2023-04-30T02:09:11.086Z,101625.44
2023-04-30T02:11:38.122Z,101627.25
2023-04-30T02:14:05.037Z,101628.22
2023-04-30T02:16:32.168Z,101622.91
2023-04-30T02:18:59.265Z,101612.31
2023-04-30T02:21:27.480Z,101610.59
2023-04-30T02:23:54.975Z,101617.66
2023-04-30T02:26:22.042Z,101609.72
2023-04-30T02:28:49.147Z,101608.84
2023-04-30T02:31:16.166Z,101613.25
2023-04-30T02:33:43.296Z,101613.16
2023-04-30T02:36:10.809Z,101611.38
2023-04-30T02:38:37.857Z,101613.16
2023-04-30T02:41:04.891Z,101608.03
2023-04-30T02:43:32.102Z,101614.97
2023-04-30T02:45:59.246Z,101608.72
2023-04-30T02:48:26.272Z,101598.13
2023-04-30T02:50:53.310Z,101590.19
2023-04-30T02:53:20.344Z,101588.41
2023-04-30T02:55:47.594Z,101595.47
2023-04-30T02:58:14.570Z,101579.59
2023-04-30T03:00:41.931Z,101565.47
2023-04-30T03:03:09.131Z,101546.09
2023-04-30T03:05:36.425Z,101546.03
2023-04-30T03:08:03.629Z,101542.50
2023-04-30T03:10:30.725Z,101558.47
2023-04-30T03:12:58.231Z,101565.47
2023-04-30T03:15:25.219Z,101564.66
2023-04-30T03:17:52.263Z,101568.13
2023-04-30T03:20:19.397Z,101559.47
2023-04-30T03:22:46.417Z,101556.75
2023-04-30T03:25:13.397Z,101562.78
2023-04-30T03:27:40.328Z,101565.44
2023-04-30T03:30:08.054Z,101569.81
2023-04-30T03:32:35.094Z,101555.75
2023-04-30T03:35:02.061Z,101561.03
2023-04-30T03:37:29.003Z,101548.75
2023-04-30T03:39:56.190Z,101547.75
2023-04-30T03:42:23.723Z,101552.09
2023-04-30T03:44:51.043Z,101546.88
2023-04-30T03:47:18.431Z,101546.88
2023-04-30T03:49:45.599Z,101538.03
2023-04-30T03:52:12.787Z,101537.06
2023-04-30T03:54:39.922Z,101527.44
2023-04-30T03:57:08.258Z,101523.81
2023-04-30T03:59:35.647Z,101520.25
2023-04-30T04:02:02.856Z,101515.03
2023-04-30T04:04:30.919Z,101518.47
2023-04-30T04:06:58.493Z,101514.09
2023-04-30T04:09:26.037Z,101522.81
2023-04-30T04:11:52.942Z,101521.03
2023-04-30T04:14:19.942Z,101512.22
2023-04-30T04:16:47.111Z,101511.25
2023-04-30T04:19:16.780Z,101505.97
2023-04-30T04:21:43.756Z,101513.00
2023-04-30T04:24:10.845Z,101509.44
2023-04-30T04:26:38.715Z,101512.13
2023-04-30T04:29:05.775Z,101520.94
2023-04-30T04:31:32.824Z,101516.50
2023-04-30T04:34:01.226Z,101523.59
2023-04-30T04:36:29.078Z,101513.84
2023-04-30T04:38:58.029Z,101509.25
2023-04-30T04:41:25.709Z,101500.38
2023-04-30T04:43:53.206Z,101503.81
2023-04-30T04:46:21.189Z,101503.94
2023-04-30T04:48:48.291Z,101504.81
2023-04-30T04:51:15.417Z,101495.09
2023-04-30T04:53:42.347Z,101494.88
2023-04-30T04:56:09.470Z,101504.53
2023-04-30T04:58:36.609Z,101495.50
2023-04-30T05:01:05.467Z,101489.13
2023-04-30T05:03:33.984Z,101491.66
2023-04-30T05:06:01.174Z,101491.66
2023-04-30T05:08:28.162Z,101480.91
2023-04-30T05:10:55.424Z,101483.47
2023-04-30T05:13:22.467Z,101481.59
2023-04-30T05:15:54.038Z,101486.75
2023-04-30T05:18:21.187Z,101481.44
2023-04-30T05:20:48.264Z,101477.16
2023-04-30T05:23:15.245Z,101475.59
2023-04-30T05:25:42.621Z,101470.50
2023-04-30T05:28:09.601Z,101469.31
2023-04-30T05:30:36.917Z,101463.88
2023-04-30T05:33:04.049Z,101465.53
2023-04-30T05:35:31.991Z,101458.25
2023-04-30T05:37:59.009Z,101459.03
2023-04-30T05:40:26.006Z,101462.41
2023-04-30T05:42:53.027Z,101453.53
2023-04-30T05:45:20.179Z,101452.44
2023-04-30T05:47:47.280Z,101449.66
2023-04-30T05:50:14.463Z,101444.34
2023-04-30T05:52:41.483Z,101438.03
2023-04-30T05:55:10.026Z,101441.63
2023-04-30T05:57:37.156Z,101450.66
2023-04-30T06:00:07.578Z,101443.56
2023-04-30T06:02:34.669Z,101444.19
2023-04-30T06:05:03.630Z,101444.19
2023-04-30T06:07:31.106Z,101441.41
2023-04-30T06:09:58.306Z,101444.69
2023-04-30T06:12:25.439Z,101442.03
2023-04-30T06:14:52.704Z,101432.28
2023-04-30T06:17:20.058Z,101436.72
2023-04-30T06:19:47.118Z,101427.28
2023-04-30T06:22:14.149Z,101419.25
2023-04-30T06:24:41.116Z,101420.91
2023-04-30T06:27:08.087Z,101423.25
2023-04-30T06:29:35.281Z,101430.41
2023-04-30T06:32:02.453Z,101421.38
2023-04-30T06:34:29.747Z,101425.03
2023-04-30T06:36:57.127Z,101424.88
2023-04-30T06:39:24.115Z,101431.81
2023-04-30T06:41:51.251Z,101426.50
2023-04-30T06:44:19.376Z,101432.69
2023-04-30T06:46:46.509Z,101429.88
2023-04-30T06:49:13.560Z,101424.56
2023-04-30T06:51:43.392Z,101430.81
2023-04-30T06:54:11.531Z,101421.06
2023-04-30T06:56:39.886Z,101423.25
2023-04-30T06:59:07.301Z,101417.88
2023-04-30T07:01:34.505Z,101417.72
2023-04-30T07:04:02.357Z,101417.66
2023-04-30T07:06:29.755Z,101423.13
2023-04-30T07:08:57.836Z,101420.69
2023-04-30T07:11:24.856Z,101409.06
2023-04-30T07:13:52.016Z,101414.50
2023-04-30T07:16:19.140Z,101425.69
2023-04-30T07:18:49.317Z,101421.94
2023-04-30T07:21:16.631Z,101423.50
2023-04-30T07:23:45.724Z,101418.97
2023-04-30T07:26:13.308Z,101421.47
2023-04-30T07:28:40.365Z,101418.56
2023-04-30T07:31:08.216Z,101417.56
2023-04-30T07:33:35.524Z,101413.81
2023-04-30T07:36:02.615Z,101419.81
2023-04-30T07:38:29.988Z,101410.84
2023-04-30T07:41:00.213Z,101411.63
2023-04-30T07:43:28.762Z,101408.81
2023-04-30T07:45:57.149Z,101409.63
2023-04-30T07:48:24.419Z,101406.00
2023-04-30T07:50:52.931Z,101402.25
2023-04-30T07:53:20.428Z,101394.16
2023-04-30T07:55:48.246Z,101375.22
2023-04-30T07:58:15.436Z,101391.94
2023-04-30T08:00:42.479Z,101387.19
2023-04-30T08:03:09.726Z,101388.72
2023-04-30T08:05:37.049Z,101385.75
2023-04-30T08:08:04.304Z,101386.13
2023-04-30T08:10:32.469Z,101390.00
2023-04-30T08:12:59.613Z,101389.69
2023-04-30T08:15:28.728Z,101374.19
2023-04-30T08:17:55.972Z,101374.59
2023-04-30T08:20:23.952Z,101374.09
2023-04-30T08:22:51.609Z,101370.06
2023-04-30T08:25:18.698Z,101374.00
2023-04-30T08:27:47.312Z,101371.84
2023-04-30T08:30:14.606Z,101370.47
2023-04-30T08:32:41.933Z,101368.44
2023-04-30T08:35:09.662Z,101365.25
2023-04-30T08:37:36.913Z,101365.06
2023-04-30T08:40:05.098Z,101363.34
2023-04-30T08:42:37.208Z,101360.59
2023-04-30T08:45:05.558Z,101360.41
2023-04-30T08:47:33.740Z,101357.47
2023-04-30T08:50:00.957Z,101355.44
2023-04-30T08:52:30.670Z,101354.13
2023-04-30T08:55:01.487Z,101347.31
2023-04-30T08:57:28.631Z,101352.94
2023-04-30T08:59:56.072Z,101356.66
2023-04-30T09:02:23.679Z,101345.28
2023-04-30T09:04:51.074Z,101346.25
2023-04-30T09:07:18.896Z,101347.59
2023-04-30T09:09:45.905Z,101344.94
2023-04-30T09:12:19.334Z,101336.66
2023-04-30T09:15:04.935Z,101337.88
2023-04-30T09:17:33.470Z,101335.41
2023-04-30T09:20:14.376Z,101332.19
2023-04-30T09:22:43.163Z,101332.13
2023-04-30T09:25:11.653Z,101335.16
2023-04-30T09:27:38.956Z,101328.56
2023-04-30T09:30:08.388Z,101332.28
2023-04-30T09:32:35.522Z,101324.97
2023-04-30T09:35:02.611Z,101324.66
2023-04-30T09:37:37.746Z,101315.03
2023-04-30T09:40:05.565Z,101315.31
2023-04-30T09:42:32.631Z,101316.47
2023-04-30T09:44:59.775Z,101306.69
2023-04-30T09:47:31.070Z,101309.41
2023-04-30T09:50:00.645Z,101307.72
2023-04-30T09:52:27.797Z,101302.09
2023-04-30T09:54:55.034Z,101304.38
2023-04-30T09:57:24.383Z,101298.16
2023-04-30T09:59:53.479Z,101297.72
2023-04-30T10:02:23.289Z,101290.13
2023-04-30T10:04:58.623Z,101294.50
2023-04-30T10:07:32.617Z,101293.63
2023-04-30T10:10:05.601Z,101288.19
2023-04-30T10:12:41.226Z,101292.53
2023-04-30T10:15:24.269Z,101293.28
2023-04-30T10:18:14.624Z,101288.53
2023-04-30T10:20:42.854Z,101282.38
2023-04-30T10:23:09.937Z,101277.25
2023-04-30T10:25:39.279Z,101273.63
2023-04-30T10:28:08.492Z,101273.25
2023-04-30T10:30:36.818Z,101275.91
2023-04-30T10:33:10.348Z,101268.75
2023-04-30T10:36:13.923Z,101266.06
2023-04-30T10:38:41.606Z,101275.75
2023-04-30T10:41:09.927Z,101261.63
2023-04-30T10:43:37.365Z,101265.44
2023-04-30T10:46:05.159Z,101264.31
2023-04-30T10:48:36.110Z,101259.84
2023-04-30T10:51:03.097Z,101256.03
2023-04-30T10:53:34.126Z,101253.66
2023-04-30T10:56:07.052Z,101259.41
2023-04-30T10:58:35.290Z,101244.47
2023-04-30T11:01:16.341Z,101253.41
2023-04-30T11:04:04.033Z,101247.22
2023-04-30T11:06:51.127Z,101249.88
2023-04-30T11:09:18.286Z,101246.72
2023-04-30T11:11:47.280Z,101241.81
2023-04-30T11:14:21.270Z,101250.75
2023-04-30T11:16:54.248Z,101248.09
2023-04-30T11:19:25.245Z,101243.16
2023-04-30T11:22:04.189Z,101247.91
2023-04-30T11:24:59.586Z,101248.03
2023-04-30T11:27:29.236Z,101240.69
2023-04-30T11:29:59.568Z,101229.84
2023-04-30T11:32:33.631Z,101232.09
2023-04-30T11:35:02.523Z,101224.16
2023-04-30T11:37:46.764Z,101216.53
2023-04-30T11:40:15.134Z,101216.31
2023-04-30T11:42:48.641Z,101211.97
2023-04-30T11:45:18.138Z,101206.34
2023-04-30T11:47:50.974Z,101200.25
2023-04-30T11:50:27.762Z,101203.56
2023-04-30T11:52:58.594Z,101201.00
2023-04-30T11:55:27.021Z,101198.22
2023-04-30T11:57:56.329Z,101193.88
2023-04-30T12:00:29.054Z,101198.34
2023-04-30T12:02:57.356Z,101199.22
2023-04-30T12:05:26.994Z,101195.69
2023-04-30T12:07:57.375Z,101190.34
2023-04-30T12:10:26.236Z,101186.09
2023-04-30T12:12:55.024Z,101186.94
2023-04-30T12:15:27.514Z,101185.13
2023-04-30T12:17:56.750Z,101186.28
2023-04-30T12:20:27.179Z,101178.41
2023-04-30T12:22:54.718Z,101178.69
2023-04-30T12:25:23.380Z,101160.19
2023-04-30T12:27:53.148Z,101158.84
2023-04-30T12:30:22.037Z,101157.81
2023-04-30T12:32:53.684Z,101157.91
2023-04-30T12:35:23.886Z,101159.81
2023-04-30T12:38:02.256Z,101164.09
2023-04-30T12:40:29.321Z,101158.75
2023-04-30T12:43:07.072Z,101169.22
2023-04-30T12:45:52.432Z,101159.41
2023-04-30T12:48:22.046Z,101156.84
2023-04-30T12:50:56.929Z,101150.03
2023-04-30T12:53:24.492Z,101155.53
2023-04-30T12:56:15.708Z,101144.97
2023-04-30T12:58:45.934Z,101146.59
2023-04-30T13:01:14.040Z,101137.66
2023-04-30T13:03:41.697Z,101135.84
2023-04-30T13:06:10.603Z,101142.78
2023-04-30T13:08:49.849Z,101133.84
2023-04-30T13:11:24.740Z,101132.34
2023-04-30T13:13:52.169Z,101124.16
2023-04-30T13:16:19.461Z,101125.88
2023-04-30T13:18:47.367Z,101125.88
2023-04-30T13:21:14.427Z,101124.88
2023-04-30T13:23:51.941Z,101119.47
2023-04-30T13:26:20.892Z,101115.75
2023-04-30T13:28:48.119Z,101107.22
2023-04-30T13:31:15.218Z,101110.84
2023-04-30T13:33:42.645Z,101111.78
2023-04-30T13:36:10.335Z,101114.25
2023-04-30T13:38:37.467Z,101106.16
2023-04-30T13:41:04.648Z,101111.50
2023-04-30T13:43:31.832Z,101101.78
2023-04-30T13:45:59.324Z,101097.22
2023-04-30T13:48:26.431Z,101093.59
2023-04-30T13:50:53.525Z,101096.16
2023-04-30T13:53:20.495Z,101103.28
2023-04-30T13:55:47.583Z,101103.41
2023-04-30T13:58:14.996Z,101088.88
2023-04-30T14:00:42.145Z,101091.25
2023-04-30T14:03:11.930Z,101084.63
2023-04-30T14:05:39.752Z,101080.91
2023-04-30T14:08:07.315Z,101078.91
2023-04-30T14:10:34.373Z,101079.66
2023-04-30T14:13:01.367Z,101075.00
2023-04-30T14:15:30.973Z,101077.09
2023-04-30T14:17:58.572Z,101073.78
2023-04-30T14:20:26.055Z,101072.88
2023-04-30T14:22:53.363Z,101072.81
2023-04-30T14:25:20.761Z,101066.97
2023-04-30T14:27:48.013Z,101068.47
2023-04-30T14:30:15.341Z,101063.69
2023-04-30T14:32:42.484Z,101050.06
2023-04-30T14:35:10.229Z,101057.09
2023-04-30T14:37:37.234Z,101048.91
2023-04-30T14:40:07.021Z,101040.28
2023-04-30T14:42:34.351Z,101034.44
2023-04-30T14:45:01.442Z,101037.75
2023-04-30T14:47:29.027Z,101036.16
2023-04-30T14:49:57.497Z,101025.38
2023-04-30T14:52:25.097Z,101026.84
2023-04-30T14:54:52.221Z,101015.78
2023-04-30T14:57:19.594Z,101022.09
2023-04-30T14:59:46.971Z,101020.38
2023-04-30T15:02:14.748Z,101019.94
2023-04-30T15:04:46.186Z,101017.16
2023-04-30T15:07:13.526Z,101018.44
2023-04-30T15:09:40.673Z,101013.03
2023-04-30T15:12:07.949Z,101010.97
2023-04-30T15:14:34.834Z,100999.25
2023-04-30T15:17:02.111Z,101001.81
2023-04-30T15:19:30.261Z,100997.34
2023-04-30T15:21:57.219Z,100998.09
2023-04-30T15:24:24.371Z,100998.72
2023-04-30T15:26:54.880Z,100995.41
2023-04-30T15:29:22.089Z,100998.22
2023-04-30T15:31:52.306Z,100987.56
2023-04-30T15:34:20.812Z,100988.25
2023-04-30T15:36:48.356Z,100988.25
2023-04-30T15:39:15.874Z,100979.75
2023-04-30T15:41:45.114Z,100973.47
2023-04-30T15:44:14.554Z,100980.72
2023-04-30T15:46:42.879Z,100968.69
2023-04-30T15:49:10.825Z,100966.56
2023-04-30T15:51:39.022Z,100970.47
2023-04-30T15:54:11.627Z,100963.56
2023-04-30T15:56:38.938Z,100960.81
2023-04-30T15:59:06.767Z,100956.00
2023-04-30T16:01:34.196Z,100954.06
2023-04-30T16:04:02.009Z,100946.06
2023-04-30T16:06:32.922Z,100947.78
2023-04-30T16:09:00.132Z,100947.44
2023-04-30T16:11:27.227Z,100956.41
2023-04-30T16:13:55.010Z,100953.94
2023-04-30T16:16:23.665Z,100954.72
2023-04-30T16:18:51.387Z,100948.31
2023-04-30T16:21:18.516Z,100957.38
2023-04-30T16:23:48.027Z,100951.91
2023-04-30T16:26:19.666Z,100958.97
2023-04-30T16:28:50.307Z,100953.41
2023-04-30T16:31:18.826Z,100959.84
2023-04-30T16:33:46.054Z,100959.19
2023-04-30T16:36:13.209Z,100957.50
2023-04-30T16:38:40.287Z,100967.94
2023-04-30T16:41:07.344Z,100961.53
2023-04-30T16:43:34.411Z,100954.28
2023-04-30T16:46:01.482Z,100955.13
2023-04-30T16:48:28.701Z,100952.13
2023-04-30T16:50:55.917Z,100938.94
2023-04-30T16:53:23.079Z,100941.16
2023-04-30T16:55:52.007Z,100959.09
2023-04-30T16:58:19.385Z,100956.22
2023-04-30T17:00:46.489Z,100951.81
2023-04-30T17:03:14.008Z,100944.91
2023-04-30T17:05:41.712Z,100948.31
2023-04-30T17:08:09.054Z,100936.56
2023-04-30T17:10:36.421Z,100926.91
2023-04-30T17:13:06.105Z,100934.69
2023-04-30T17:15:33.477Z,100943.63
2023-04-30T17:18:08.365Z,100947.22
2023-04-30T17:20:35.897Z,100949.16
2023-04-30T17:23:03.660Z,100943.09
2023-04-30T17:25:32.358Z,100934.66
2023-04-30T17:28:02.710Z,100925.84
2023-04-30T17:30:29.946Z,100913.34
2023-04-30T17:32:57.220Z,100919.03
2023-04-30T17:35:24.427Z,100913.91
2023-04-30T17:37:51.842Z,100916.78
2023-04-30T17:40:19.056Z,100912.66
2023-04-30T17:42:46.790Z,100916.16
2023-04-30T17:45:14.782Z,100912.00
2023-04-30T17:47:42.359Z,100917.34
2023-04-30T17:50:10.024Z,100906.59
2023-04-30T17:52:39.137Z,100910.94
2023-04-30T17:55:08.840Z,100904.13
2023-04-30T17:57:39.454Z,100895.28
2023-04-30T18:00:08.300Z,100896.34
2023-04-30T18:02:35.854Z,100893.91
2023-04-30T18:05:03.320Z,100904.69
2023-04-30T18:07:30.551Z,100904.69
2023-04-30T18:09:58.273Z,100891.38
2023-04-30T18:12:26.112Z,100888.06
2023-04-30T18:14:53.673Z,100890.72
2023-04-30T18:17:20.654Z,100883.69
2023-04-30T18:19:49.687Z,100887.84
2023-04-30T18:22:16.757Z,100892.97
2023-04-30T18:24:44.063Z,100894.63
2023-04-30T18:27:11.344Z,100892.75
2023-04-30T18:29:38.733Z,100897.00
2023-04-30T18:32:06.307Z,100890.41
2023-04-30T18:34:33.817Z,100907.84
2023-04-30T18:37:01.302Z,100899.00
2023-04-30T18:39:28.740Z,100904.03
2023-04-30T18:41:56.340Z,100899.31
2023-04-30T18:44:34.833Z,100903.69
2023-04-30T18:47:02.088Z,100904.41
2023-04-30T18:49:29.354Z,100906.97
2023-04-30T18:51:57.080Z,100905.69
2023-04-30T18:54:24.472Z,100906.31
2023-04-30T18:56:51.740Z,100901.72
2023-04-30T18:59:19.747Z,100905.97
2023-04-30T19:01:47.160Z,100911.22
2023-04-30T19:04:17.561Z,100903.75
2023-04-30T19:06:46.716Z,100898.19
2023-04-30T19:09:15.859Z,100909.50
2023-04-30T19:11:42.995Z,100906.72
2023-04-30T19:14:10.860Z,100899.47
2023-04-30T19:16:39.097Z,100906.38
2023-04-30T19:19:06.445Z,100905.22
2023-04-30T19:21:36.828Z,100911.28
2023-04-30T19:24:07.863Z,100905.81
2023-04-30T19:26:37.963Z,100914.59
2023-04-30T19:29:05.753Z,100919.91
2023-04-30T19:31:38.290Z,100912.75
2023-04-30T19:34:08.270Z,100908.28
2023-04-30T19:36:35.574Z,100915.19
2023-04-30T19:39:05.009Z,100915.53
2023-04-30T19:41:32.910Z,100919.50
2023-04-30T19:44:00.192Z,100916.72
2023-04-30T19:46:27.739Z,100914.03
2023-04-30T19:48:55.945Z,100919.16
2023-04-30T19:51:23.617Z,100923.53
2023-04-30T19:53:52.922Z,100910.56
2023-04-30T19:56:23.103Z,100923.88
2023-04-30T19:58:51.720Z,100931.03
2023-04-30T20:01:19.407Z,100926.53
2023-04-30T20:03:48.050Z,100929.22
2023-04-30T20:06:15.956Z,100923.13
2023-04-30T20:08:44.560Z,100933.78
2023-04-30T20:11:11.851Z,100938.28
2023-04-30T20:13:39.168Z,100932.09
2023-04-30T20:16:06.880Z,100930.50
2023-04-30T20:18:35.159Z,100936.91
2023-04-30T20:21:02.834Z,100930.16
2023-04-30T20:23:31.931Z,100926.88
2023-04-30T20:26:00.173Z,100930.38
2023-04-30T20:28:27.465Z,100933.28
2023-04-30T20:30:56.553Z,100931.69
2023-04-30T20:33:26.198Z,100935.41
2023-04-30T20:35:53.620Z,100933.81
2023-04-30T20:38:22.632Z,100937.56
2023-04-30T20:40:51.068Z,100937.78
2023-04-30T20:43:19.697Z,100934.25
2023-04-30T20:45:47.314Z,100940.66
2023-04-30T20:48:15.339Z,100933.59
2023-04-30T20:50:42.635Z,100933.72
2023-04-30T20:53:11.284Z,100934.03
2023-04-30T20:55:39.294Z,100929.56
2023-04-30T20:58:08.494Z,100931.72
2023-04-30T21:00:36.801Z,100926.94
2023-04-30T21:03:06.459Z,100928.94
2023-04-30T21:05:36.397Z,100942.34
2023-04-30T21:08:06.572Z,100933.53
2023-04-30T21:10:37.022Z,100929.81
2023-04-30T21:13:06.499Z,100938.75
2023-04-30T21:15:36.273Z,100943.84
2023-04-30T21:18:03.829Z,100939.38
2023-04-30T21:20:32.256Z,100950.53
2023-04-30T21:23:01.248Z,100943.81
2023-04-30T21:25:29.705Z,100944.97
2023-04-30T21:27:57.862Z,100941.88
2023-04-30T21:30:26.939Z,100951.13
2023-04-30T21:32:59.185Z,100946.19
2023-04-30T21:35:28.084Z,100946.41
2023-04-30T21:37:55.693Z,100945.75
2023-04-30T21:40:22.955Z,100953.09
2023-04-30T21:42:51.649Z,100951.78
2023-04-30T21:45:19.123Z,100949.34
2023-04-30T21:47:49.042Z,100946.09
2023-04-30T21:50:16.661Z,100951.53
2023-04-30T21:52:44.828Z,100951.00
2023-04-30T21:55:13.067Z,100952.03
2023-04-30T21:57:40.529Z,100952.44
2023-04-30T22:00:09.294Z,100951.69
2023-04-30T22:02:36.879Z,100947.50
2023-04-30T22:05:05.350Z,100949.41
2023-04-30T22:07:32.703Z,100955.91
2023-04-30T22:10:01.317Z,100953.44
2023-04-30T22:12:28.674Z,100952.69
2023-04-30T22:14:56.348Z,100959.03
2023-04-30T22:17:24.017Z,100948.50
2023-04-30T22:19:51.498Z,100947.00
2023-04-30T22:22:18.719Z,100940.13
2023-04-30T22:24:47.261Z,100939.59
2023-04-30T22:27:15.372Z,100933.53
2023-04-30T22:29:47.219Z,100933.59
2023-04-30T22:32:15.426Z,100930.31
2023-04-30T22:34:43.804Z,100932.09
2023-04-30T22:37:11.791Z,100926.13
2023-04-30T22:39:40.286Z,100935.25
2023-04-30T22:42:10.003Z,100929.94
2023-04-30T22:44:38.174Z,100931.81
2023-04-30T22:47:06.523Z,100940.84
2023-04-30T22:49:35.611Z,100937.44
2023-04-30T22:52:02.767Z,100939.41
2023-04-30T22:54:29.873Z,100936.00
2023-04-30T22:56:57.636Z,100944.16
2023-04-30T22:59:24.865Z,100942.47
2023-04-30T23:01:52.074Z,100936.38
2023-04-30T23:04:19.495Z,100935.63
2023-04-30T23:06:47.312Z,100930.44
2023-04-30T23:09:16.249Z,100935.06
2023-04-30T23:11:43.596Z,100939.72
2023-04-30T23:14:11.066Z,100943.34
2023-04-30T23:16:40.596Z,100947.78
2023-04-30T23:19:07.993Z,100949.69
2023-04-30T23:21:35.576Z,100955.94
2023-04-30T23:24:04.424Z,100949.00
2023-04-30T23:26:31.634Z,100948.16
2023-04-30T23:28:58.731Z,100948.34
2023-04-30T23:31:26.003Z,100942.00
2023-04-30T23:33:53.111Z,100944.75
2023-04-30T23:36:21.130Z,100945.91
2023-04-30T23:38:48.474Z,100952.25
2023-04-30T23:41:15.750Z,100957.81
2023-04-30T23:43:43.028Z,100961.44
2023-04-30T23:46:10.227Z,100956.19
2023-04-30T23:48:37.835Z,100958.09
2023-04-30T23:51:05.935Z,100952.03
2023-04-30T23:53:33.116Z,100951.25
2023-04-30T23:56:00.404Z,100947.78
2023-04-30T23:58:30.575Z,100947.78
